sensor_id;sensor_type;location;lat;lon;timestamp;P1;durP1;ratioP1;P2;durP2;ratioP2
21148;SDS011;10732;51.472;6.466;2023-02-01T00:01:48;22.85;;;6.18;;
21148;SDS011;10732;51.472;6.466;2023-02-01T00:04:14;22.45;;;5.47;;
21148;SDS011;10732;51.472;6.466;2023-02-01T00:06:39;21.63;;;5.45;;
21148;SDS011;10732;51.472;6.466;2023-02-01T00:09:05;21.98;;;5.60;;
21148;SDS011;10732;51.472;6.466;2023-02-01T00:11:30;21.20;;;6.45;;
21148;SDS011;10732;51.472;6.466;2023-02-01T00:13:56;17.63;;;5.72;;
21148;SDS011;10732;51.472;6.466;2023-02-01T00:16:26;19.55;;;6.28;;
21148;SDS011;10732;51.472;6.466;2023-02-01T00:19:00;18.10;;;5.72;;
21148;SDS011;10732;51.472;6.466;2023-02-01T00:21:29;17.75;;;6.30;;
21148;SDS011;10732;51.472;6.466;2023-02-01T00:23:56;23.50;;;7.45;;
21148;SDS011;10732;51.472;6.466;2023-02-01T00:26:27;21.73;;;6.72;;
21148;SDS011;10732;51.472;6.466;2023-02-01T00:28:55;22.45;;;7.32;;
21148;SDS011;10732;51.472;6.466;2023-02-01T00:31:20;19.65;;;7.70;;
21148;SDS011;10732;51.472;6.466;2023-02-01T00:33:47;27.20;;;9.20;;
21148;SDS011;10732;51.472;6.466;2023-02-01T00:36:13;23.23;;;9.50;;
21148;SDS011;10732;51.472;6.466;2023-02-01T00:38:39;22.65;;;8.85;;
21148;SDS011;10732;51.472;6.466;2023-02-01T00:41:06;21.77;;;9.23;;
21148;SDS011;10732;51.472;6.466;2023-02-01T00:43:39;24.60;;;9.13;;
21148;SDS011;10732;51.472;6.466;2023-02-01T00:46:05;25.80;;;9.93;;
21148;SDS011;10732;51.472;6.466;2023-02-01T00:48:31;25.25;;;10.32;;
21148;SDS011;10732;51.472;6.466;2023-02-01T00:51:04;28.55;;;9.73;;
21148;SDS011;10732;51.472;6.466;2023-02-01T00:53:37;22.95;;;9.07;;
21148;SDS011;10732;51.472;6.466;2023-02-01T00:56:03;24.95;;;9.40;;
21148;SDS011;10732;51.472;6.466;2023-02-01T00:58:30;23.08;;;9.27;;
21148;SDS011;10732;51.472;6.466;2023-02-01T01:01:07;25.63;;;9.77;;
21148;SDS011;10732;51.472;6.466;2023-02-01T01:03:35;29.08;;;8.93;;
21148;SDS011;10732;51.472;6.466;2023-02-01T01:06:03;21.45;;;8.43;;
21148;SDS011;10732;51.472;6.466;2023-02-01T01:08:31;24.42;;;8.43;;
21148;SDS011;10732;51.472;6.466;2023-02-01T01:10:57;18.90;;;7.95;;
21148;SDS011;10732;51.472;6.466;2023-02-01T01:13:22;24.77;;;8.07;;
21148;SDS011;10732;51.472;6.466;2023-02-01T01:15:48;17.98;;;7.50;;
21148;SDS011;10732;51.472;6.466;2023-02-01T01:18:14;16.20;;;7.63;;
21148;SDS011;10732;51.472;6.466;2023-02-01T01:20:40;25.70;;;7.47;;
21148;SDS011;10732;51.472;6.466;2023-02-01T01:23:06;20.83;;;6.65;;
21148;SDS011;10732;51.472;6.466;2023-02-01T01:25:37;22.50;;;6.10;;
21148;SDS011;10732;51.472;6.466;2023-02-01T01:28:03;22.85;;;6.90;;
21148;SDS011;10732;51.472;6.466;2023-02-01T01:30:29;28.40;;;6.63;;
21148;SDS011;10732;51.472;6.466;2023-02-01T01:32:55;19.73;;;6.35;;
21148;SDS011;10732;51.472;6.466;2023-02-01T01:35:20;20.40;;;5.88;;
21148;SDS011;10732;51.472;6.466;2023-02-01T01:37:46;19.10;;;5.40;;
21148;SDS011;10732;51.472;6.466;2023-02-01T01:40:11;18.75;;;5.70;;
21148;SDS011;10732;51.472;6.466;2023-02-01T01:42:41;16.02;;;4.55;;
21148;SDS011;10732;51.472;6.466;2023-02-01T01:45:22;16.50;;;5.47;;
21148;SDS011;10732;51.472;6.466;2023-02-01T01:47:52;20.88;;;5.68;;
21148;SDS011;10732;51.472;6.466;2023-02-01T01:50:23;18.20;;;5.07;;
21148;SDS011;10732;51.472;6.466;2023-02-01T01:52:55;25.20;;;5.30;;
21148;SDS011;10732;51.472;6.466;2023-02-01T01:55:24;19.45;;;5.35;;
21148;SDS011;10732;51.472;6.466;2023-02-01T01:57:56;18.73;;;4.60;;
21148;SDS011;10732;51.472;6.466;2023-02-01T02:00:30;23.95;;;5.18;;
21148;SDS011;10732;51.472;6.466;2023-02-01T02:02:58;19.58;;;5.10;;
21148;SDS011;10732;51.472;6.466;2023-02-01T02:05:39;21.60;;;4.82;;
21148;SDS011;10732;51.472;6.466;2023-02-01T02:08:05;16.85;;;4.18;;
21148;SDS011;10732;51.472;6.466;2023-02-01T02:10:30;19.08;;;4.38;;
21148;SDS011;10732;51.472;6.466;2023-02-01T02:13:15;24.23;;;4.60;;
21148;SDS011;10732;51.472;6.466;2023-02-01T02:15:43;17.50;;;3.97;;
21148;SDS011;10732;51.472;6.466;2023-02-01T02:18:19;14.20;;;4.57;;
21148;SDS011;10732;51.472;6.466;2023-02-01T02:20:55;18.42;;;4.30;;
21148;SDS011;10732;51.472;6.466;2023-02-01T02:23:40;26.92;;;4.72;;
21148;SDS011;10732;51.472;6.466;2023-02-01T02:31:48;14.77;;;4.38;;
21148;SDS011;10732;51.472;6.466;2023-02-01T02:34:22;16.77;;;4.15;;
21148;SDS011;10732;51.472;6.466;2023-02-01T02:37:22;20.27;;;5.13;;
21148;SDS011;10732;51.472;6.466;2023-02-01T02:43:25;19.47;;;4.20;;
21148;SDS011;10732;51.472;6.466;2023-02-01T02:49:39;18.85;;;5.00;;
21148;SDS011;10732;51.472;6.466;2023-02-01T02:52:38;23.20;;;4.80;;
21148;SDS011;10732;51.472;6.466;2023-02-01T02:55:36;19.30;;;4.88;;
21148;SDS011;10732;51.472;6.466;2023-02-01T02:58:05;20.98;;;4.80;;
21148;SDS011;10732;51.472;6.466;2023-02-01T03:00:50;21.42;;;5.20;;
21148;SDS011;10732;51.472;6.466;2023-02-01T03:03:37;22.88;;;5.10;;
21148;SDS011;10732;51.472;6.466;2023-02-01T03:06:22;17.08;;;4.50;;
21148;SDS011;10732;51.472;6.466;2023-02-01T03:08:48;22.57;;;4.77;;
21148;SDS011;10732;51.472;6.466;2023-02-01T03:11:18;18.25;;;4.95;;
21148;SDS011;10732;51.472;6.466;2023-02-01T03:13:45;21.23;;;5.15;;
21148;SDS011;10732;51.472;6.466;2023-02-01T03:16:21;22.50;;;5.72;;
21148;SDS011;10732;51.472;6.466;2023-02-01T03:19:01;21.58;;;6.18;;
21148;SDS011;10732;51.472;6.466;2023-02-01T03:21:39;23.25;;;6.03;;
21148;SDS011;10732;51.472;6.466;2023-02-01T03:24:12;20.45;;;5.40;;
21148;SDS011;10732;51.472;6.466;2023-02-01T03:26:45;22.52;;;5.80;;
21148;SDS011;10732;51.472;6.466;2023-02-01T03:29:21;18.75;;;5.22;;
21148;SDS011;10732;51.472;6.466;2023-02-01T03:31:49;18.67;;;4.90;;
21148;SDS011;10732;51.472;6.466;2023-02-01T03:34:15;20.10;;;6.15;;
21148;SDS011;10732;51.472;6.466;2023-02-01T03:36:47;20.35;;;5.82;;
21148;SDS011;10732;51.472;6.466;2023-02-01T03:39:21;23.15;;;5.10;;
21148;SDS011;10732;51.472;6.466;2023-02-01T03:42:13;25.08;;;5.22;;
21148;SDS011;10732;51.472;6.466;2023-02-01T03:45:04;24.48;;;5.65;;
21148;SDS011;10732;51.472;6.466;2023-02-01T03:47:40;22.77;;;5.65;;
21148;SDS011;10732;51.472;6.466;2023-02-01T03:50:09;22.08;;;5.35;;
21148;SDS011;10732;51.472;6.466;2023-02-01T03:55:09;15.20;;;4.35;;
21148;SDS011;10732;51.472;6.466;2023-02-01T03:57:39;24.48;;;5.50;;
21148;SDS011;10732;51.472;6.466;2023-02-01T04:00:14;16.75;;;5.15;;
21148;SDS011;10732;51.472;6.466;2023-02-01T04:02:43;18.23;;;5.32;;
21148;SDS011;10732;51.472;6.466;2023-02-01T04:05:08;24.05;;;5.72;;
21148;SDS011;10732;51.472;6.466;2023-02-01T04:07:34;28.13;;;5.40;;
21148;SDS011;10732;51.472;6.466;2023-02-01T04:09:59;27.27;;;5.13;;
21148;SDS011;10732;51.472;6.466;2023-02-01T04:12:25;22.92;;;5.05;;
21148;SDS011;10732;51.472;6.466;2023-02-01T04:14:51;24.58;;;5.80;;
21148;SDS011;10732;51.472;6.466;2023-02-01T04:17:16;26.20;;;5.07;;
21148;SDS011;10732;51.472;6.466;2023-02-01T04:19:42;22.00;;;5.55;;
21148;SDS011;10732;51.472;6.466;2023-02-01T04:22:07;20.10;;;5.18;;
21148;SDS011;10732;51.472;6.466;2023-02-01T04:24:33;26.02;;;5.60;;
21148;SDS011;10732;51.472;6.466;2023-02-01T04:26:58;25.05;;;5.18;;
21148;SDS011;10732;51.472;6.466;2023-02-01T04:29:24;24.70;;;4.93;;
21148;SDS011;10732;51.472;6.466;2023-02-01T04:31:49;22.20;;;4.70;;
21148;SDS011;10732;51.472;6.466;2023-02-01T04:34:15;24.30;;;5.32;;
21148;SDS011;10732;51.472;6.466;2023-02-01T04:36:41;20.58;;;5.03;;
21148;SDS011;10732;51.472;6.466;2023-02-01T04:39:08;27.20;;;5.72;;
21148;SDS011;10732;51.472;6.466;2023-02-01T04:41:34;22.77;;;4.72;;
21148;SDS011;10732;51.472;6.466;2023-02-01T04:44:00;26.77;;;5.03;;
21148;SDS011;10732;51.472;6.466;2023-02-01T04:46:26;17.90;;;4.78;;
21148;SDS011;10732;51.472;6.466;2023-02-01T04:48:51;28.17;;;4.78;;
21148;SDS011;10732;51.472;6.466;2023-02-01T04:51:17;25.75;;;5.25;;
21148;SDS011;10732;51.472;6.466;2023-02-01T04:53:43;27.25;;;5.55;;
21148;SDS011;10732;51.472;6.466;2023-02-01T04:56:09;20.50;;;4.35;;
21148;SDS011;10732;51.472;6.466;2023-02-01T04:58:35;23.27;;;5.50;;
21148;SDS011;10732;51.472;6.466;2023-02-01T05:01:04;23.83;;;4.45;;
21148;SDS011;10732;51.472;6.466;2023-02-01T05:03:33;26.45;;;4.80;;
21148;SDS011;10732;51.472;6.466;2023-02-01T05:05:59;27.30;;;5.43;;
21148;SDS011;10732;51.472;6.466;2023-02-01T05:08:25;24.70;;;5.57;;
21148;SDS011;10732;51.472;6.466;2023-02-01T05:10:52;25.65;;;4.78;;
21148;SDS011;10732;51.472;6.466;2023-02-01T05:13:18;27.50;;;5.77;;
21148;SDS011;10732;51.472;6.466;2023-02-01T05:16:02;22.90;;;5.50;;
21148;SDS011;10732;51.472;6.466;2023-02-01T05:18:29;20.38;;;4.82;;
21148;SDS011;10732;51.472;6.466;2023-02-01T05:20:54;28.13;;;5.45;;
21148;SDS011;10732;51.472;6.466;2023-02-01T05:23:20;24.47;;;4.77;;
21148;SDS011;10732;51.472;6.466;2023-02-01T05:25:46;21.80;;;5.13;;
21148;SDS011;10732;51.472;6.466;2023-02-01T05:28:11;22.80;;;5.20;;
21148;SDS011;10732;51.472;6.466;2023-02-01T05:30:37;26.73;;;4.70;;
21148;SDS011;10732;51.472;6.466;2023-02-01T05:33:02;24.27;;;5.57;;
21148;SDS011;10732;51.472;6.466;2023-02-01T05:35:28;23.37;;;4.90;;
21148;SDS011;10732;51.472;6.466;2023-02-01T05:37:54;21.80;;;5.13;;
21148;SDS011;10732;51.472;6.466;2023-02-01T05:40:20;23.92;;;5.07;;
21148;SDS011;10732;51.472;6.466;2023-02-01T05:42:45;20.07;;;4.73;;
21148;SDS011;10732;51.472;6.466;2023-02-01T05:45:11;19.60;;;4.85;;
21148;SDS011;10732;51.472;6.466;2023-02-01T05:47:36;25.52;;;5.00;;
21148;SDS011;10732;51.472;6.466;2023-02-01T05:50:02;20.90;;;4.90;;
21148;SDS011;10732;51.472;6.466;2023-02-01T05:52:29;19.58;;;4.57;;
21148;SDS011;10732;51.472;6.466;2023-02-01T05:54:55;25.65;;;5.35;;
21148;SDS011;10732;51.472;6.466;2023-02-01T05:57:20;28.58;;;5.43;;
21148;SDS011;10732;51.472;6.466;2023-02-01T05:59:46;22.15;;;5.43;;
21148;SDS011;10732;51.472;6.466;2023-02-01T06:02:13;20.83;;;5.20;;
21148;SDS011;10732;51.472;6.466;2023-02-01T06:04:39;31.00;;;5.05;;
21148;SDS011;10732;51.472;6.466;2023-02-01T06:07:05;23.73;;;5.00;;
21148;SDS011;10732;51.472;6.466;2023-02-01T06:09:32;30.52;;;5.63;;
21148;SDS011;10732;51.472;6.466;2023-02-01T06:12:02;24.40;;;5.45;;
21148;SDS011;10732;51.472;6.466;2023-02-01T06:14:28;31.58;;;5.88;;
21148;SDS011;10732;51.472;6.466;2023-02-01T06:16:54;22.85;;;4.75;;
21148;SDS011;10732;51.472;6.466;2023-02-01T06:19:20;19.80;;;5.03;;
21148;SDS011;10732;51.472;6.466;2023-02-01T06:21:46;21.58;;;5.22;;
21148;SDS011;10732;51.472;6.466;2023-02-01T06:24:12;25.40;;;5.22;;
21148;SDS011;10732;51.472;6.466;2023-02-01T06:26:38;23.45;;;5.25;;
21148;SDS011;10732;51.472;6.466;2023-02-01T06:29:04;25.00;;;5.65;;
21148;SDS011;10732;51.472;6.466;2023-02-01T06:31:40;21.08;;;4.70;;
21148;SDS011;10732;51.472;6.466;2023-02-01T06:34:07;20.23;;;5.13;;
21148;SDS011;10732;51.472;6.466;2023-02-01T06:36:32;24.40;;;5.20;;
21148;SDS011;10732;51.472;6.466;2023-02-01T06:38:58;18.10;;;5.07;;
21148;SDS011;10732;51.472;6.466;2023-02-01T06:41:24;21.95;;;5.50;;
21148;SDS011;10732;51.472;6.466;2023-02-01T06:43:50;21.25;;;5.50;;
21148;SDS011;10732;51.472;6.466;2023-02-01T06:46:16;20.50;;;5.20;;
21148;SDS011;10732;51.472;6.466;2023-02-01T06:48:42;24.77;;;5.35;;
21148;SDS011;10732;51.472;6.466;2023-02-01T06:51:18;24.80;;;5.40;;
21148;SDS011;10732;51.472;6.466;2023-02-01T06:53:45;30.45;;;5.75;;
21148;SDS011;10732;51.472;6.466;2023-02-01T06:56:11;23.73;;;5.43;;
21148;SDS011;10732;51.472;6.466;2023-02-01T06:58:36;22.85;;;5.07;;
21148;SDS011;10732;51.472;6.466;2023-02-01T07:01:04;22.65;;;5.03;;
21148;SDS011;10732;51.472;6.466;2023-02-01T07:03:30;25.92;;;5.25;;
21148;SDS011;10732;51.472;6.466;2023-02-01T07:05:56;22.58;;;5.63;;
21148;SDS011;10732;51.472;6.466;2023-02-01T07:08:28;21.98;;;5.05;;
21148;SDS011;10732;51.472;6.466;2023-02-01T07:10:55;27.30;;;5.30;;
21148;SDS011;10732;51.472;6.466;2023-02-01T07:13:20;22.08;;;4.78;;
21148;SDS011;10732;51.472;6.466;2023-02-01T07:15:46;23.13;;;5.10;;
21148;SDS011;10732;51.472;6.466;2023-02-01T07:18:12;18.95;;;4.50;;
21148;SDS011;10732;51.472;6.466;2023-02-01T07:20:39;20.95;;;4.57;;
21148;SDS011;10732;51.472;6.466;2023-02-01T07:23:05;20.35;;;5.18;;
21148;SDS011;10732;51.472;6.466;2023-02-01T07:25:30;27.63;;;5.32;;
21148;SDS011;10732;51.472;6.466;2023-02-01T07:27:56;24.15;;;5.40;;
21148;SDS011;10732;51.472;6.466;2023-02-01T07:30:22;28.55;;;5.35;;
21148;SDS011;10732;51.472;6.466;2023-02-01T07:32:48;21.33;;;5.05;;
21148;SDS011;10732;51.472;6.466;2023-02-01T07:35:14;22.02;;;4.90;;
21148;SDS011;10732;51.472;6.466;2023-02-01T07:37:39;26.95;;;4.90;;
21148;SDS011;10732;51.472;6.466;2023-02-01T07:40:05;24.65;;;5.32;;
21148;SDS011;10732;51.472;6.466;2023-02-01T07:42:34;28.00;;;5.35;;
21148;SDS011;10732;51.472;6.466;2023-02-01T07:45:00;23.45;;;5.18;;
21148;SDS011;10732;51.472;6.466;2023-02-01T07:47:27;22.75;;;5.00;;
21148;SDS011;10732;51.472;6.466;2023-02-01T07:49:52;23.13;;;5.38;;
21148;SDS011;10732;51.472;6.466;2023-02-01T07:52:18;26.58;;;5.07;;
21148;SDS011;10732;51.472;6.466;2023-02-01T07:54:43;23.80;;;5.68;;
21148;SDS011;10732;51.472;6.466;2023-02-01T07:57:09;20.90;;;5.03;;
21148;SDS011;10732;51.472;6.466;2023-02-01T07:59:36;22.20;;;4.95;;
21148;SDS011;10732;51.472;6.466;2023-02-01T08:02:22;20.85;;;4.68;;
21148;SDS011;10732;51.472;6.466;2023-02-01T08:04:48;21.58;;;5.00;;
21148;SDS011;10732;51.472;6.466;2023-02-01T08:07:13;24.58;;;5.07;;
21148;SDS011;10732;51.472;6.466;2023-02-01T08:09:39;19.55;;;4.82;;
21148;SDS011;10732;51.472;6.466;2023-02-01T08:12:05;20.55;;;5.40;;
21148;SDS011;10732;51.472;6.466;2023-02-01T08:14:31;19.98;;;4.65;;
21148;SDS011;10732;51.472;6.466;2023-02-01T08:16:56;23.23;;;4.85;;
21148;SDS011;10732;51.472;6.466;2023-02-01T08:19:22;23.98;;;4.97;;
21148;SDS011;10732;51.472;6.466;2023-02-01T08:21:47;30.25;;;5.88;;
21148;SDS011;10732;51.472;6.466;2023-02-01T08:24:13;24.17;;;4.70;;
21148;SDS011;10732;51.472;6.466;2023-02-01T08:26:39;23.65;;;4.63;;
21148;SDS011;10732;51.472;6.466;2023-02-01T08:29:05;26.25;;;5.65;;
21148;SDS011;10732;51.472;6.466;2023-02-01T08:31:33;20.90;;;4.40;;
21148;SDS011;10732;51.472;6.466;2023-02-01T08:34:00;23.85;;;4.93;;
21148;SDS011;10732;51.472;6.466;2023-02-01T08:36:29;20.92;;;5.05;;
21148;SDS011;10732;51.472;6.466;2023-02-01T08:38:55;23.13;;;5.38;;
21148;SDS011;10732;51.472;6.466;2023-02-01T08:41:25;22.40;;;5.55;;
21148;SDS011;10732;51.472;6.466;2023-02-01T08:43:52;21.00;;;5.15;;
21148;SDS011;10732;51.472;6.466;2023-02-01T08:46:19;21.38;;;4.80;;
21148;SDS011;10732;51.472;6.466;2023-02-01T08:48:45;20.75;;;5.72;;
21148;SDS011;10732;51.472;6.466;2023-02-01T08:51:12;24.00;;;4.68;;
21148;SDS011;10732;51.472;6.466;2023-02-01T08:53:39;18.98;;;5.03;;
21148;SDS011;10732;51.472;6.466;2023-02-01T08:56:06;24.42;;;5.55;;
21148;SDS011;10732;51.472;6.466;2023-02-01T08:58:32;20.38;;;5.15;;
21148;SDS011;10732;51.472;6.466;2023-02-01T09:01:05;22.83;;;4.57;;
21148;SDS011;10732;51.472;6.466;2023-02-01T09:03:36;23.40;;;5.18;;
21148;SDS011;10732;51.472;6.466;2023-02-01T09:06:02;19.48;;;5.20;;
21148;SDS011;10732;51.472;6.466;2023-02-01T09:08:29;21.05;;;4.80;;
21148;SDS011;10732;51.472;6.466;2023-02-01T09:11:05;25.73;;;4.80;;
21148;SDS011;10732;51.472;6.466;2023-02-01T09:13:32;23.05;;;5.38;;
21148;SDS011;10732;51.472;6.466;2023-02-01T09:15:59;21.65;;;5.10;;
21148;SDS011;10732;51.472;6.466;2023-02-01T09:18:25;25.17;;;5.45;;
21148;SDS011;10732;51.472;6.466;2023-02-01T09:20:50;17.83;;;4.53;;
21148;SDS011;10732;51.472;6.466;2023-02-01T09:23:16;22.30;;;4.70;;
21148;SDS011;10732;51.472;6.466;2023-02-01T09:25:42;24.90;;;5.05;;
21148;SDS011;10732;51.472;6.466;2023-02-01T09:28:07;20.20;;;5.10;;
21148;SDS011;10732;51.472;6.466;2023-02-01T09:30:34;23.88;;;5.32;;
21148;SDS011;10732;51.472;6.466;2023-02-01T09:33:00;18.60;;;4.60;;
21148;SDS011;10732;51.472;6.466;2023-02-01T09:35:26;21.35;;;4.57;;
21148;SDS011;10732;51.472;6.466;2023-02-01T09:37:52;17.35;;;4.63;;
21148;SDS011;10732;51.472;6.466;2023-02-01T09:40:17;22.02;;;4.97;;
21148;SDS011;10732;51.472;6.466;2023-02-01T09:45:40;19.08;;;4.07;;
21148;SDS011;10732;51.472;6.466;2023-02-01T09:48:29;22.33;;;4.40;;
21148;SDS011;10732;51.472;6.466;2023-02-01T09:50:58;20.70;;;4.72;;
21148;SDS011;10732;51.472;6.466;2023-02-01T09:53:29;22.60;;;4.32;;
21148;SDS011;10732;51.472;6.466;2023-02-01T09:56:06;18.95;;;5.07;;
21148;SDS011;10732;51.472;6.466;2023-02-01T09:58:38;19.50;;;5.22;;
21148;SDS011;10732;51.472;6.466;2023-02-01T10:01:20;18.00;;;4.45;;
21148;SDS011;10732;51.472;6.466;2023-02-01T10:03:48;22.90;;;4.63;;
21148;SDS011;10732;51.472;6.466;2023-02-01T10:06:25;21.55;;;4.30;;
21148;SDS011;10732;51.472;6.466;2023-02-01T10:11:46;20.95;;;5.05;;
21148;SDS011;10732;51.472;6.466;2023-02-01T10:15:09;17.75;;;4.90;;
21148;SDS011;10732;51.472;6.466;2023-02-01T10:17:52;18.95;;;4.85;;
21148;SDS011;10732;51.472;6.466;2023-02-01T10:25:55;18.80;;;4.38;;
21148;SDS011;10732;51.472;6.466;2023-02-01T10:28:25;19.33;;;5.18;;
21148;SDS011;10732;51.472;6.466;2023-02-01T10:30:59;21.48;;;4.80;;
21148;SDS011;10732;51.472;6.466;2023-02-01T10:33:26;20.40;;;5.05;;
21148;SDS011;10732;51.472;6.466;2023-02-01T10:38:38;12.55;;;4.10;;
21148;SDS011;10732;51.472;6.466;2023-02-01T10:41:14;19.10;;;4.53;;
21148;SDS011;10732;51.472;6.466;2023-02-01T10:43:56;19.83;;;4.25;;
21148;SDS011;10732;51.472;6.466;2023-02-01T10:46:24;17.67;;;4.28;;
21148;SDS011;10732;51.472;6.466;2023-02-01T10:48:52;17.92;;;4.90;;
21148;SDS011;10732;51.472;6.466;2023-02-01T10:51:39;20.23;;;4.80;;
21148;SDS011;10732;51.472;6.466;2023-02-01T10:54:11;14.55;;;3.55;;
21148;SDS011;10732;51.472;6.466;2023-02-01T10:56:43;18.20;;;4.68;;
21148;SDS011;10732;51.472;6.466;2023-02-01T10:59:21;18.90;;;4.05;;
21148;SDS011;10732;51.472;6.466;2023-02-01T11:01:50;17.50;;;4.30;;
21148;SDS011;10732;51.472;6.466;2023-02-01T11:04:23;18.13;;;4.55;;
21148;SDS011;10732;51.472;6.466;2023-02-01T11:06:52;19.67;;;4.65;;
21148;SDS011;10732;51.472;6.466;2023-02-01T11:09:33;18.45;;;4.55;;
21148;SDS011;10732;51.472;6.466;2023-02-01T11:12:04;16.60;;;4.45;;
21148;SDS011;10732;51.472;6.466;2023-02-01T11:17:16;16.48;;;4.45;;
21148;SDS011;10732;51.472;6.466;2023-02-01T11:19:59;20.83;;;4.72;;
21148;SDS011;10732;51.472;6.466;2023-02-01T11:22:26;14.93;;;4.43;;
21148;SDS011;10732;51.472;6.466;2023-02-01T11:24:54;14.65;;;4.35;;
21148;SDS011;10732;51.472;6.466;2023-02-01T11:27:20;18.55;;;4.20;;
21148;SDS011;10732;51.472;6.466;2023-02-01T11:29:52;23.20;;;4.53;;
21148;SDS011;10732;51.472;6.466;2023-02-01T11:32:22;13.75;;;3.85;;
21148;SDS011;10732;51.472;6.466;2023-02-01T11:34:53;19.73;;;4.78;;
21148;SDS011;10732;51.472;6.466;2023-02-01T11:37:25;20.67;;;4.63;;
21148;SDS011;10732;51.472;6.466;2023-02-01T11:39:59;20.65;;;5.60;;
21148;SDS011;10732;51.472;6.466;2023-02-01T11:42:27;25.13;;;4.68;;
21148;SDS011;10732;51.472;6.466;2023-02-01T11:47:43;25.40;;;4.75;;
21148;SDS011;10732;51.472;6.466;2023-02-01T11:55:42;17.10;;;4.60;;
21148;SDS011;10732;51.472;6.466;2023-02-01T11:58:22;13.35;;;3.47;;
21148;SDS011;10732;51.472;6.466;2023-02-01T12:03:56;16.95;;;4.28;;
21148;SDS011;10732;51.472;6.466;2023-02-01T12:23:53;15.65;;;2.90;;
21148;SDS011;10732;51.472;6.466;2023-02-01T12:26:26;16.80;;;3.60;;
21148;SDS011;10732;51.472;6.466;2023-02-01T12:40:26;16.67;;;3.60;;
21148;SDS011;10732;51.472;6.466;2023-02-01T12:43:12;14.70;;;3.35;;
21148;SDS011;10732;51.472;6.466;2023-02-01T12:46:01;12.63;;;2.90;;
21148;SDS011;10732;51.472;6.466;2023-02-01T12:48:56;12.98;;;2.92;;
21148;SDS011;10732;51.472;6.466;2023-02-01T12:51:28;15.93;;;3.65;;
21148;SDS011;10732;51.472;6.466;2023-02-01T12:56:53;22.05;;;2.90;;
21148;SDS011;10732;51.472;6.466;2023-02-01T12:59:35;16.70;;;3.28;;
21148;SDS011;10732;51.472;6.466;2023-02-01T13:02:11;16.52;;;3.40;;
21148;SDS011;10732;51.472;6.466;2023-02-01T13:05:20;13.38;;;3.22;;
21148;SDS011;10732;51.472;6.466;2023-02-01T13:07:53;13.52;;;3.38;;
21148;SDS011;10732;51.472;6.466;2023-02-01T13:10:28;16.27;;;3.42;;
21148;SDS011;10732;51.472;6.466;2023-02-01T13:18:37;13.07;;;3.40;;
21148;SDS011;10732;51.472;6.466;2023-02-01T13:21:18;19.30;;;3.65;;
21148;SDS011;10732;51.472;6.466;2023-02-01T13:23:56;16.70;;;3.55;;
21148;SDS011;10732;51.472;6.466;2023-02-01T13:26:22;24.33;;;3.67;;
21148;SDS011;10732;51.472;6.466;2023-02-01T13:28:49;18.98;;;4.03;;
21148;SDS011;10732;51.472;6.466;2023-02-01T13:36:48;14.02;;;3.28;;
21148;SDS011;10732;51.472;6.466;2023-02-01T13:39:53;19.80;;;3.40;;
21148;SDS011;10732;51.472;6.466;2023-02-01T13:42:54;16.13;;;3.22;;
21148;SDS011;10732;51.472;6.466;2023-02-01T13:45:27;15.40;;;3.45;;
21148;SDS011;10732;51.472;6.466;2023-02-01T13:47:56;18.40;;;3.25;;
21148;SDS011;10732;51.472;6.466;2023-02-01T13:50:31;17.75;;;3.20;;
21148;SDS011;10732;51.472;6.466;2023-02-01T13:55:38;13.68;;;3.13;;
21148;SDS011;10732;51.472;6.466;2023-02-01T13:58:11;17.15;;;3.17;;
21148;SDS011;10732;51.472;6.466;2023-02-01T14:01:31;15.27;;;3.30;;
21148;SDS011;10732;51.472;6.466;2023-02-01T14:03:46;17.75;;;3.28;;
21148;SDS011;10732;51.472;6.466;2023-02-01T14:09:12;20.83;;;3.50;;
21148;SDS011;10732;51.472;6.466;2023-02-01T14:11:53;21.55;;;3.83;;
21148;SDS011;10732;51.472;6.466;2023-02-01T14:21:50;18.13;;;3.60;;
21148;SDS011;10732;51.472;6.466;2023-02-01T14:24:27;21.70;;;3.28;;
21148;SDS011;10732;51.472;6.466;2023-02-01T14:27:01;14.27;;;3.10;;
21148;SDS011;10732;51.472;6.466;2023-02-01T14:29:35;10.10;;;3.20;;
21148;SDS011;10732;51.472;6.466;2023-02-01T14:32:06;14.90;;;3.50;;
21148;SDS011;10732;51.472;6.466;2023-02-01T14:37:33;19.20;;;3.15;;
21148;SDS011;10732;51.472;6.466;2023-02-01T14:40:06;15.05;;;3.42;;
21148;SDS011;10732;51.472;6.466;2023-02-01T14:42:48;17.75;;;3.95;;
21148;SDS011;10732;51.472;6.466;2023-02-01T14:47:50;18.15;;;3.28;;
21148;SDS011;10732;51.472;6.466;2023-02-01T14:50:20;24.25;;;3.97;;
21148;SDS011;10732;51.472;6.466;2023-02-01T14:53:14;12.70;;;3.15;;
21148;SDS011;10732;51.472;6.466;2023-02-01T15:01:00;15.90;;;3.10;;
21148;SDS011;10732;51.472;6.466;2023-02-01T15:03:32;17.33;;;3.78;;
21148;SDS011;10732;51.472;6.466;2023-02-01T15:06:00;21.73;;;3.72;;
21148;SDS011;10732;51.472;6.466;2023-02-01T15:08:36;13.75;;;3.33;;
21148;SDS011;10732;51.472;6.466;2023-02-01T15:11:06;12.05;;;3.20;;
21148;SDS011;10732;51.472;6.466;2023-02-01T15:13:38;18.73;;;3.95;;
21148;SDS011;10732;51.472;6.466;2023-02-01T15:16:10;13.93;;;3.10;;
21148;SDS011;10732;51.472;6.466;2023-02-01T15:18:38;17.88;;;2.88;;
21148;SDS011;10732;51.472;6.466;2023-02-01T15:21:05;14.18;;;3.53;;
21148;SDS011;10732;51.472;6.466;2023-02-01T15:23:31;16.38;;;4.03;;
21148;SDS011;10732;51.472;6.466;2023-02-01T15:25:58;15.48;;;3.65;;
21148;SDS011;10732;51.472;6.466;2023-02-01T15:28:24;17.25;;;3.35;;
21148;SDS011;10732;51.472;6.466;2023-02-01T15:31:04;18.88;;;3.78;;
21148;SDS011;10732;51.472;6.466;2023-02-01T15:33:33;14.70;;;3.42;;
21148;SDS011;10732;51.472;6.466;2023-02-01T15:36:09;13.35;;;3.30;;
21148;SDS011;10732;51.472;6.466;2023-02-01T15:38:41;18.05;;;3.55;;
21148;SDS011;10732;51.472;6.466;2023-02-01T15:41:12;15.38;;;3.00;;
21148;SDS011;10732;51.472;6.466;2023-02-01T15:46:44;16.10;;;3.60;;
21148;SDS011;10732;51.472;6.466;2023-02-01T15:51:49;19.95;;;3.70;;
21148;SDS011;10732;51.472;6.466;2023-02-01T15:54:19;19.20;;;3.42;;
21148;SDS011;10732;51.472;6.466;2023-02-01T15:56:54;17.13;;;3.00;;
21148;SDS011;10732;51.472;6.466;2023-02-01T15:59:22;18.92;;;4.10;;
21148;SDS011;10732;51.472;6.466;2023-02-01T16:02:22;19.73;;;3.60;;
21148;SDS011;10732;51.472;6.466;2023-02-01T16:04:50;14.57;;;3.45;;
21148;SDS011;10732;51.472;6.466;2023-02-01T16:07:25;15.18;;;3.55;;
21148;SDS011;10732;51.472;6.466;2023-02-01T16:10:00;12.75;;;3.15;;
21148;SDS011;10732;51.472;6.466;2023-02-01T16:15:06;16.83;;;4.07;;
21148;SDS011;10732;51.472;6.466;2023-02-01T16:17:32;17.23;;;3.35;;
21148;SDS011;10732;51.472;6.466;2023-02-01T16:19:57;16.40;;;3.85;;
21148;SDS011;10732;51.472;6.466;2023-02-01T16:22:23;18.67;;;3.35;;
21148;SDS011;10732;51.472;6.466;2023-02-01T16:24:49;12.38;;;3.47;;
21148;SDS011;10732;51.472;6.466;2023-02-01T16:27:15;16.25;;;3.60;;
21148;SDS011;10732;51.472;6.466;2023-02-01T16:29:41;15.65;;;3.40;;
21148;SDS011;10732;51.472;6.466;2023-02-01T16:32:10;16.48;;;3.55;;
21148;SDS011;10732;51.472;6.466;2023-02-01T16:34:45;13.35;;;2.97;;
21148;SDS011;10732;51.472;6.466;2023-02-01T16:37:15;11.65;;;3.22;;
21148;SDS011;10732;51.472;6.466;2023-02-01T16:39:44;13.25;;;3.60;;
21148;SDS011;10732;51.472;6.466;2023-02-01T16:42:11;13.10;;;3.50;;
21148;SDS011;10732;51.472;6.466;2023-02-01T16:44:38;17.05;;;3.60;;
21148;SDS011;10732;51.472;6.466;2023-02-01T16:47:07;16.77;;;3.30;;
21148;SDS011;10732;51.472;6.466;2023-02-01T16:49:42;18.33;;;3.35;;
21148;SDS011;10732;51.472;6.466;2023-02-01T16:52:18;17.88;;;4.25;;